Terminal Aerodrome Forecast
Issued by NWS

Home | Current Version | Previous Version | Text Only | Print | Product List | Glossary On
Versions: 1 2 3 4 5 6 7 8 9 10 11 12 13 14 15 16 17 18 19 20 21 22 23 24 25 26
520
FTUS43 KDLH 180405 AAB
TAFBRD
TAF AMD
KBRD 180405Z 1804/1824 00000KT 6SM BR BKN012
     FM180500 19004KT 3SM BR BKN010
      TEMPO 1805/1808 1/2SM FG BKN004
     FM180800 20006KT 3SM BR OVC006
     FM181000 20006KT P6SM OVC040
     FM182200 22009KT P6SM VCSH OVC023=

USA.gov is the U.S. government's official web portal to all federal, state and local government web resources and services.